sensor_id;sensor_type;location;lat;lon;timestamp;P1;durP1;ratioP1;P2;durP2;ratioP2
36789;SDS011;22740;52.182;8.780;2022-09-09T00:07:59;4.30;;;0.95;;
36789;SDS011;22740;52.182;8.780;2022-09-09T00:14:07;2.88;;;0.70;;
36789;SDS011;22740;52.182;8.780;2022-09-09T00:20:19;3.38;;;0.70;;
36789;SDS011;22740;52.182;8.780;2022-09-09T00:26:42;2.30;;;0.63;;
36789;SDS011;22740;52.182;8.780;2022-09-09T00:32:53;3.33;;;0.68;;
36789;SDS011;22740;52.182;8.780;2022-09-09T00:39:00;4.68;;;0.70;;
36789;SDS011;22740;52.182;8.780;2022-09-09T00:45:25;2.60;;;0.50;;
36789;SDS011;22740;52.182;8.780;2022-09-09T00:58:08;3.97;;;0.82;;
36789;SDS011;22740;52.182;8.780;2022-09-09T01:04:15;3.33;;;0.70;;
36789;SDS011;22740;52.182;8.780;2022-09-09T01:11:06;3.60;;;0.80;;
36789;SDS011;22740;52.182;8.780;2022-09-09T01:16:51;1.40;;;0.60;;
36789;SDS011;22740;52.182;8.780;2022-09-09T01:29:24;5.68;;;1.35;;
36789;SDS011;22740;52.182;8.780;2022-09-09T01:41:56;5.40;;;1.23;;
36789;SDS011;22740;52.182;8.780;2022-09-09T01:47:58;4.60;;;0.82;;
36789;SDS011;22740;52.182;8.780;2022-09-09T01:54:01;5.13;;;1.10;;
36789;SDS011;22740;52.182;8.780;2022-09-09T02:00:05;3.30;;;0.82;;
36789;SDS011;22740;52.182;8.780;2022-09-09T02:12:27;4.75;;;1.00;;
36789;SDS011;22740;52.182;8.780;2022-09-09T02:18:42;7.50;;;1.17;;
36789;SDS011;22740;52.182;8.780;2022-09-09T02:24:51;4.15;;;0.90;;
36789;SDS011;22740;52.182;8.780;2022-09-09T02:30:57;4.22;;;1.15;;
36789;SDS011;22740;52.182;8.780;2022-09-09T02:36:59;6.68;;;1.23;;
36789;SDS011;22740;52.182;8.780;2022-09-09T02:43:04;2.53;;;0.88;;
36789;SDS011;22740;52.182;8.780;2022-09-09T02:49:09;5.38;;;0.90;;
36789;SDS011;22740;52.182;8.780;2022-09-09T03:01:46;2.13;;;0.80;;
36789;SDS011;22740;52.182;8.780;2022-09-09T03:07:48;2.13;;;0.80;;
36789;SDS011;22740;52.182;8.780;2022-09-09T03:13:51;3.88;;;0.80;;
36789;SDS011;22740;52.182;8.780;2022-09-09T03:19:53;2.40;;;0.63;;
36789;SDS011;22740;52.182;8.780;2022-09-09T03:25:56;4.20;;;1.00;;
36789;SDS011;22740;52.182;8.780;2022-09-09T03:31:59;3.37;;;1.00;;
36789;SDS011;22740;52.182;8.780;2022-09-09T03:38:01;2.90;;;0.90;;
36789;SDS011;22740;52.182;8.780;2022-09-09T03:44:03;4.35;;;1.10;;
36789;SDS011;22740;52.182;8.780;2022-09-09T03:50:05;3.60;;;1.10;;
36789;SDS011;22740;52.182;8.780;2022-09-09T03:56:10;5.10;;;1.17;;
36789;SDS011;22740;52.182;8.780;2022-09-09T04:02:12;3.22;;;1.00;;
36789;SDS011;22740;52.182;8.780;2022-09-09T04:08:14;5.93;;;1.20;;
36789;SDS011;22740;52.182;8.780;2022-09-09T04:14:15;4.80;;;1.10;;
36789;SDS011;22740;52.182;8.780;2022-09-09T04:20:17;4.13;;;1.02;;
36789;SDS011;22740;52.182;8.780;2022-09-09T04:26:20;4.63;;;1.10;;
36789;SDS011;22740;52.182;8.780;2022-09-09T04:32:22;5.18;;;0.98;;
36789;SDS011;22740;52.182;8.780;2022-09-09T04:38:24;2.40;;;0.88;;
36789;SDS011;22740;52.182;8.780;2022-09-09T04:44:27;5.45;;;0.93;;
36789;SDS011;22740;52.182;8.780;2022-09-09T04:50:29;3.85;;;1.02;;
36789;SDS011;22740;52.182;8.780;2022-09-09T04:56:30;5.35;;;1.05;;
36789;SDS011;22740;52.182;8.780;2022-09-09T05:02:32;4.05;;;0.90;;
36789;SDS011;22740;52.182;8.780;2022-09-09T05:08:38;4.45;;;0.95;;
36789;SDS011;22740;52.182;8.780;2022-09-09T05:14:41;8.43;;;1.48;;
36789;SDS011;22740;52.182;8.780;2022-09-09T05:20:43;4.85;;;1.55;;
36789;SDS011;22740;52.182;8.780;2022-09-09T05:26:45;6.68;;;1.10;;
36789;SDS011;22740;52.182;8.780;2022-09-09T05:32:48;5.45;;;1.50;;
36789;SDS011;22740;52.182;8.780;2022-09-09T05:38:50;5.65;;;1.70;;
36789;SDS011;22740;52.182;8.780;2022-09-09T05:44:55;5.20;;;1.67;;
36789;SDS011;22740;52.182;8.780;2022-09-09T05:50:57;4.93;;;1.70;;
36789;SDS011;22740;52.182;8.780;2022-09-09T05:56:59;7.00;;;1.95;;
36789;SDS011;22740;52.182;8.780;2022-09-09T06:03:01;5.97;;;1.83;;
36789;SDS011;22740;52.182;8.780;2022-09-09T06:09:04;5.82;;;1.67;;
36789;SDS011;22740;52.182;8.780;2022-09-09T06:15:08;5.72;;;1.60;;
36789;SDS011;22740;52.182;8.780;2022-09-09T06:21:15;8.55;;;1.65;;
36789;SDS011;22740;52.182;8.780;2022-09-09T06:27:18;4.70;;;1.83;;
36789;SDS011;22740;52.182;8.780;2022-09-09T06:33:19;4.65;;;1.60;;
36789;SDS011;22740;52.182;8.780;2022-09-09T06:39:21;7.22;;;1.55;;
36789;SDS011;22740;52.182;8.780;2022-09-09T06:45:23;4.15;;;1.63;;
36789;SDS011;22740;52.182;8.780;2022-09-09T06:51:29;9.13;;;1.90;;
36789;SDS011;22740;52.182;8.780;2022-09-09T06:57:32;6.80;;;1.70;;
36789;SDS011;22740;52.182;8.780;2022-09-09T07:03:38;5.75;;;1.30;;
36789;SDS011;22740;52.182;8.780;2022-09-09T07:09:40;5.63;;;1.48;;
36789;SDS011;22740;52.182;8.780;2022-09-09T07:15:42;4.10;;;1.45;;
36789;SDS011;22740;52.182;8.780;2022-09-09T07:21:44;6.75;;;1.40;;
36789;SDS011;22740;52.182;8.780;2022-09-09T07:27:46;7.20;;;1.58;;
36789;SDS011;22740;52.182;8.780;2022-09-09T07:33:48;3.83;;;1.73;;
36789;SDS011;22740;52.182;8.780;2022-09-09T07:39:50;4.20;;;1.33;;
36789;SDS011;22740;52.182;8.780;2022-09-09T07:45:57;7.10;;;1.30;;
36789;SDS011;22740;52.182;8.780;2022-09-09T07:51:59;4.15;;;1.30;;
36789;SDS011;22740;52.182;8.780;2022-09-09T07:58:01;6.35;;;1.25;;
36789;SDS011;22740;52.182;8.780;2022-09-09T08:04:04;3.80;;;1.00;;
36789;SDS011;22740;52.182;8.780;2022-09-09T08:10:08;4.95;;;1.00;;
36789;SDS011;22740;52.182;8.780;2022-09-09T08:16:11;3.15;;;1.00;;
36789;SDS011;22740;52.182;8.780;2022-09-09T08:22:19;3.40;;;1.00;;
36789;SDS011;22740;52.182;8.780;2022-09-09T08:28:23;4.75;;;1.63;;
36789;SDS011;22740;52.182;8.780;2022-09-09T08:34:25;4.85;;;1.10;;
36789;SDS011;22740;52.182;8.780;2022-09-09T08:40:29;8.73;;;1.40;;
36789;SDS011;22740;52.182;8.780;2022-09-09T08:53:16;5.90;;;1.20;;
36789;SDS011;22740;52.182;8.780;2022-09-09T08:59:23;5.90;;;1.10;;
36789;SDS011;22740;52.182;8.780;2022-09-09T09:12:19;7.20;;;1.35;;
36789;SDS011;22740;52.182;8.780;2022-09-09T09:18:22;6.00;;;1.42;;
36789;SDS011;22740;52.182;8.780;2022-09-09T09:24:27;7.68;;;1.50;;
36789;SDS011;22740;52.182;8.780;2022-09-09T09:36:53;7.07;;;1.58;;
36789;SDS011;22740;52.182;8.780;2022-09-09T09:43:00;7.78;;;1.50;;
36789;SDS011;22740;52.182;8.780;2022-09-09T09:49:03;6.85;;;1.33;;
36789;SDS011;22740;52.182;8.780;2022-09-09T09:55:11;7.03;;;1.50;;
36789;SDS011;22740;52.182;8.780;2022-09-09T10:01:28;7.45;;;1.20;;
36789;SDS011;22740;52.182;8.780;2022-09-09T10:07:34;6.25;;;1.02;;
36789;SDS011;22740;52.182;8.780;2022-09-09T10:14:25;10.48;;;1.38;;
36789;SDS011;22740;52.182;8.780;2022-09-09T10:21:03;4.80;;;1.13;;
36789;SDS011;22740;52.182;8.780;2022-09-09T10:26:55;4.53;;;0.82;;
36789;SDS011;22740;52.182;8.780;2022-09-09T10:45:32;4.22;;;1.20;;
36789;SDS011;22740;52.182;8.780;2022-09-09T10:57:47;4.32;;;1.13;;
36789;SDS011;22740;52.182;8.780;2022-09-09T11:03:56;3.45;;;0.75;;
36789;SDS011;22740;52.182;8.780;2022-09-09T11:29:02;4.70;;;1.08;;
36789;SDS011;22740;52.182;8.780;2022-09-09T11:42:07;5.78;;;1.10;;
36789;SDS011;22740;52.182;8.780;2022-09-09T11:48:22;5.35;;;1.10;;
36789;SDS011;22740;52.182;8.780;2022-09-09T11:54:29;6.10;;;1.05;;
36789;SDS011;22740;52.182;8.780;2022-09-09T12:00:46;5.65;;;1.20;;
36789;SDS011;22740;52.182;8.780;2022-09-09T12:06:53;4.30;;;1.42;;
36789;SDS011;22740;52.182;8.780;2022-09-09T12:13:13;7.78;;;1.20;;
36789;SDS011;22740;52.182;8.780;2022-09-09T12:19:21;3.28;;;0.70;;
36789;SDS011;22740;52.182;8.780;2022-09-09T12:25:33;5.32;;;1.10;;
36789;SDS011;22740;52.182;8.780;2022-09-09T12:31:47;6.07;;;0.98;;
36789;SDS011;22740;52.182;8.780;2022-09-09T12:38:00;2.92;;;0.80;;
36789;SDS011;22740;52.182;8.780;2022-09-09T12:44:04;5.07;;;0.90;;
36789;SDS011;22740;52.182;8.780;2022-09-09T12:56:49;3.53;;;0.60;;
36789;SDS011;22740;52.182;8.780;2022-09-09T13:02:55;3.05;;;0.73;;
36789;SDS011;22740;52.182;8.780;2022-09-09T13:09:00;4.32;;;1.05;;
36789;SDS011;22740;52.182;8.780;2022-09-09T13:15:03;5.13;;;0.80;;
36789;SDS011;22740;52.182;8.780;2022-09-09T13:21:12;4.88;;;1.00;;
36789;SDS011;22740;52.182;8.780;2022-09-09T13:27:34;4.10;;;0.73;;
36789;SDS011;22740;52.182;8.780;2022-09-09T13:33:40;2.15;;;0.60;;
36789;SDS011;22740;52.182;8.780;2022-09-09T13:39:50;3.28;;;0.63;;
36789;SDS011;22740;52.182;8.780;2022-09-09T13:46:04;4.05;;;0.80;;
36789;SDS011;22740;52.182;8.780;2022-09-09T13:52:24;4.40;;;1.00;;
36789;SDS011;22740;52.182;8.780;2022-09-09T13:58:32;3.67;;;0.75;;
36789;SDS011;22740;52.182;8.780;2022-09-09T14:04:33;2.75;;;0.60;;
36789;SDS011;22740;52.182;8.780;2022-09-09T14:10:36;2.55;;;0.70;;
36789;SDS011;22740;52.182;8.780;2022-09-09T14:16:38;2.28;;;0.70;;
36789;SDS011;22740;52.182;8.780;2022-09-09T14:22:40;3.30;;;0.85;;
36789;SDS011;22740;52.182;8.780;2022-09-09T14:28:42;4.15;;;0.80;;
36789;SDS011;22740;52.182;8.780;2022-09-09T14:35:00;4.18;;;0.75;;
36789;SDS011;22740;52.182;8.780;2022-09-09T14:41:03;2.80;;;0.60;;
36789;SDS011;22740;52.182;8.780;2022-09-09T14:47:05;5.30;;;0.60;;
36789;SDS011;22740;52.182;8.780;2022-09-09T14:53:09;3.92;;;0.70;;
36789;SDS011;22740;52.182;8.780;2022-09-09T14:59:11;2.42;;;0.52;;
36789;SDS011;22740;52.182;8.780;2022-09-09T15:05:14;2.87;;;0.73;;
36789;SDS011;22740;52.182;8.780;2022-09-09T15:11:17;2.47;;;0.65;;
36789;SDS011;22740;52.182;8.780;2022-09-09T15:17:20;3.22;;;0.70;;
36789;SDS011;22740;52.182;8.780;2022-09-09T15:23:21;2.33;;;0.50;;
36789;SDS011;22740;52.182;8.780;2022-09-09T15:29:23;3.83;;;0.70;;
36789;SDS011;22740;52.182;8.780;2022-09-09T15:35:26;4.03;;;0.77;;
36789;SDS011;22740;52.182;8.780;2022-09-09T15:41:28;3.72;;;0.50;;
36789;SDS011;22740;52.182;8.780;2022-09-09T15:47:32;3.05;;;0.60;;
36789;SDS011;22740;52.182;8.780;2022-09-09T15:53:34;3.10;;;0.73;;
36789;SDS011;22740;52.182;8.780;2022-09-09T15:59:36;4.50;;;1.00;;
36789;SDS011;22740;52.182;8.780;2022-09-09T16:05:38;3.92;;;0.73;;
36789;SDS011;22740;52.182;8.780;2022-09-09T16:11:40;4.05;;;0.68;;
36789;SDS011;22740;52.182;8.780;2022-09-09T16:17:42;5.03;;;0.73;;
36789;SDS011;22740;52.182;8.780;2022-09-09T16:23:44;3.95;;;0.98;;
36789;SDS011;22740;52.182;8.780;2022-09-09T16:29:46;4.88;;;0.88;;
36789;SDS011;22740;52.182;8.780;2022-09-09T16:35:48;4.70;;;0.80;;
36789;SDS011;22740;52.182;8.780;2022-09-09T16:41:50;4.35;;;0.93;;
36789;SDS011;22740;52.182;8.780;2022-09-09T16:47:53;6.13;;;0.80;;
36789;SDS011;22740;52.182;8.780;2022-09-09T16:53:55;2.72;;;0.65;;
36789;SDS011;22740;52.182;8.780;2022-09-09T16:59:59;4.40;;;1.02;;
36789;SDS011;22740;52.182;8.780;2022-09-09T17:06:02;3.87;;;0.80;;
36789;SDS011;22740;52.182;8.780;2022-09-09T17:12:05;6.22;;;1.15;;
36789;SDS011;22740;52.182;8.780;2022-09-09T17:18:11;3.47;;;1.10;;
36789;SDS011;22740;52.182;8.780;2022-09-09T17:24:14;4.80;;;0.90;;
36789;SDS011;22740;52.182;8.780;2022-09-09T17:30:16;4.60;;;0.90;;
36789;SDS011;22740;52.182;8.780;2022-09-09T17:36:22;3.67;;;0.80;;
36789;SDS011;22740;52.182;8.780;2022-09-09T17:42:26;4.82;;;0.70;;
36789;SDS011;22740;52.182;8.780;2022-09-09T17:48:29;3.10;;;0.43;;
36789;SDS011;22740;52.182;8.780;2022-09-09T17:54:31;3.67;;;1.08;;
36789;SDS011;22740;52.182;8.780;2022-09-09T18:00:34;4.63;;;1.13;;
36789;SDS011;22740;52.182;8.780;2022-09-09T18:06:38;4.70;;;1.42;;
36789;SDS011;22740;52.182;8.780;2022-09-09T18:12:42;2.35;;;0.90;;
36789;SDS011;22740;52.182;8.780;2022-09-09T18:18:44;4.40;;;1.00;;
36789;SDS011;22740;52.182;8.780;2022-09-09T18:24:47;5.50;;;0.90;;
36789;SDS011;22740;52.182;8.780;2022-09-09T18:30:51;3.83;;;0.70;;
36789;SDS011;22740;52.182;8.780;2022-09-09T18:36:53;2.17;;;0.63;;
36789;SDS011;22740;52.182;8.780;2022-09-09T18:42:56;3.03;;;0.85;;
36789;SDS011;22740;52.182;8.780;2022-09-09T18:48:58;3.45;;;0.73;;
36789;SDS011;22740;52.182;8.780;2022-09-09T18:55:00;6.47;;;1.00;;
36789;SDS011;22740;52.182;8.780;2022-09-09T19:01:02;4.55;;;1.00;;
36789;SDS011;22740;52.182;8.780;2022-09-09T19:07:06;2.10;;;0.70;;
36789;SDS011;22740;52.182;8.780;2022-09-09T19:13:08;4.93;;;1.10;;
36789;SDS011;22740;52.182;8.780;2022-09-09T19:19:12;1.77;;;0.70;;
36789;SDS011;22740;52.182;8.780;2022-09-09T19:25:19;3.70;;;0.95;;
36789;SDS011;22740;52.182;8.780;2022-09-09T19:31:21;2.75;;;0.80;;
36789;SDS011;22740;52.182;8.780;2022-09-09T19:37:24;2.05;;;0.70;;
36789;SDS011;22740;52.182;8.780;2022-09-09T19:43:26;2.17;;;0.80;;
36789;SDS011;22740;52.182;8.780;2022-09-09T19:49:28;2.63;;;0.82;;
36789;SDS011;22740;52.182;8.780;2022-09-09T19:55:30;3.90;;;1.05;;
36789;SDS011;22740;52.182;8.780;2022-09-09T20:01:33;2.63;;;1.00;;
36789;SDS011;22740;52.182;8.780;2022-09-09T20:07:40;4.20;;;1.10;;
36789;SDS011;22740;52.182;8.780;2022-09-09T20:13:42;3.53;;;1.00;;
36789;SDS011;22740;52.182;8.780;2022-09-09T20:19:44;2.40;;;0.80;;
36789;SDS011;22740;52.182;8.780;2022-09-09T20:25:46;3.30;;;1.00;;
36789;SDS011;22740;52.182;8.780;2022-09-09T20:31:48;5.07;;;0.90;;
36789;SDS011;22740;52.182;8.780;2022-09-09T20:37:49;2.33;;;0.90;;
36789;SDS011;22740;52.182;8.780;2022-09-09T20:43:52;3.47;;;0.88;;
36789;SDS011;22740;52.182;8.780;2022-09-09T20:49:54;2.45;;;1.00;;
36789;SDS011;22740;52.182;8.780;2022-09-09T20:55:59;5.53;;;1.35;;
36789;SDS011;22740;52.182;8.780;2022-09-09T21:02:02;1.35;;;0.80;;
36789;SDS011;22740;52.182;8.780;2022-09-09T21:08:04;2.58;;;0.90;;
36789;SDS011;22740;52.182;8.780;2022-09-09T21:14:06;1.92;;;0.90;;
36789;SDS011;22740;52.182;8.780;2022-09-09T21:20:09;2.38;;;1.00;;
36789;SDS011;22740;52.182;8.780;2022-09-09T21:26:11;2.38;;;0.80;;
36789;SDS011;22740;52.182;8.780;2022-09-09T21:32:13;3.17;;;1.10;;
36789;SDS011;22740;52.182;8.780;2022-09-09T21:38:18;3.08;;;1.13;;
36789;SDS011;22740;52.182;8.780;2022-09-09T21:44:22;2.22;;;0.73;;
36789;SDS011;22740;52.182;8.780;2022-09-09T21:50:24;3.58;;;0.68;;
36789;SDS011;22740;52.182;8.780;2022-09-09T21:56:28;3.55;;;1.10;;
36789;SDS011;22740;52.182;8.780;2022-09-09T22:02:30;2.10;;;0.70;;
36789;SDS011;22740;52.182;8.780;2022-09-09T22:08:33;4.07;;;0.80;;
36789;SDS011;22740;52.182;8.780;2022-09-09T22:14:35;2.92;;;0.60;;
36789;SDS011;22740;52.182;8.780;2022-09-09T22:20:39;2.67;;;0.85;;
36789;SDS011;22740;52.182;8.780;2022-09-09T22:26:42;2.67;;;0.77;;
36789;SDS011;22740;52.182;8.780;2022-09-09T22:32:44;2.25;;;0.70;;
36789;SDS011;22740;52.182;8.780;2022-09-09T22:38:47;4.00;;;0.90;;
36789;SDS011;22740;52.182;8.780;2022-09-09T22:44:49;3.65;;;0.90;;
36789;SDS011;22740;52.182;8.780;2022-09-09T22:50:51;2.47;;;0.70;;
36789;SDS011;22740;52.182;8.780;2022-09-09T22:56:53;5.32;;;2.05;;
36789;SDS011;22740;52.182;8.780;2022-09-09T23:02:55;3.70;;;1.00;;
36789;SDS011;22740;52.182;8.780;2022-09-09T23:08:58;3.90;;;0.82;;
36789;SDS011;22740;52.182;8.780;2022-09-09T23:15:02;2.92;;;0.95;;
36789;SDS011;22740;52.182;8.780;2022-09-09T23:21:10;3.42;;;1.17;;
36789;SDS011;22740;52.182;8.780;2022-09-09T23:27:14;5.97;;;1.10;;
36789;SDS011;22740;52.182;8.780;2022-09-09T23:33:16;2.10;;;0.70;;
36789;SDS011;22740;52.182;8.780;2022-09-09T23:39:18;3.90;;;1.00;;
36789;SDS011;22740;52.182;8.780;2022-09-09T23:45:20;3.55;;;1.00;;
36789;SDS011;22740;52.182;8.780;2022-09-09T23:51:23;5.93;;;1.05;;
36789;SDS011;22740;52.182;8.780;2022-09-09T23:57:28;3.10;;;0.90;;
